createdAt,value
2023-05-10T00:01:15.060Z,4.78
2023-05-10T00:03:20.175Z,5.18
2023-05-10T00:07:29.905Z,4.15
2023-05-10T00:09:34.866Z,4.70
2023-05-10T00:11:42.399Z,5.22
2023-05-10T00:13:47.356Z,4.97
2023-05-10T00:15:54.884Z,4.93
2023-05-10T00:17:59.887Z,4.60
2023-05-10T00:20:06.095Z,5.40
2023-05-10T00:22:11.635Z,4.93
2023-05-10T00:24:16.617Z,6.00
2023-05-10T00:26:21.595Z,5.32
2023-05-10T00:28:31.469Z,5.20
2023-05-10T00:30:36.439Z,4.72
2023-05-10T00:32:44.680Z,5.40
2023-05-10T00:34:49.677Z,4.57
2023-05-10T00:36:54.629Z,4.65
2023-05-10T00:38:59.534Z,5.03
2023-05-10T00:41:04.587Z,5.03
2023-05-10T00:43:13.034Z,5.00
2023-05-10T00:45:17.944Z,4.82
2023-05-10T00:49:30.980Z,4.80
2023-05-10T00:51:36.369Z,5.50
2023-05-10T00:53:41.366Z,5.35
2023-05-10T00:55:46.647Z,5.25
2023-05-10T00:57:52.304Z,4.65
2023-05-10T00:59:58.080Z,5.10
2023-05-10T01:02:03.260Z,5.05
2023-05-10T01:04:08.592Z,5.32
2023-05-10T01:08:21.681Z,5.55
2023-05-10T01:10:26.738Z,5.03
2023-05-10T01:14:38.427Z,5.32
2023-05-10T01:16:46.342Z,5.10
2023-05-10T01:18:52.437Z,5.20
2023-05-10T01:21:06.913Z,5.28
2023-05-10T01:23:32.834Z,4.95
2023-05-10T01:28:17.342Z,4.93
2023-05-10T01:30:54.714Z,5.32
2023-05-10T01:33:05.536Z,5.38
2023-05-10T01:35:20.210Z,4.80
2023-05-10T01:37:32.832Z,5.20
2023-05-10T01:39:48.041Z,5.25
2023-05-10T01:41:58.638Z,5.47
2023-05-10T01:44:10.488Z,5.32
2023-05-10T01:46:21.745Z,4.28
2023-05-10T01:48:32.000Z,4.30
2023-05-10T01:50:41.410Z,4.18
2023-05-10T01:52:49.487Z,4.68
2023-05-10T01:54:59.987Z,4.72
2023-05-10T01:57:10.023Z,4.53
2023-05-10T01:59:17.358Z,4.40
2023-05-10T02:01:24.785Z,4.32
2023-05-10T02:03:34.218Z,3.45
2023-05-10T02:05:45.672Z,4.10
2023-05-10T02:07:51.753Z,5.18
2023-05-10T02:09:57.227Z,4.13
2023-05-10T02:12:03.729Z,3.75
2023-05-10T02:14:11.589Z,3.40
2023-05-10T02:16:21.265Z,3.78
2023-05-10T02:18:27.392Z,3.40
2023-05-10T02:20:36.358Z,3.17
2023-05-10T02:22:43.365Z,3.28
2023-05-10T02:24:50.198Z,3.42
2023-05-10T02:26:57.497Z,3.50
2023-05-10T02:29:04.393Z,3.20
2023-05-10T02:31:11.035Z,3.35
2023-05-10T02:33:20.532Z,2.92
2023-05-10T02:35:27.651Z,3.00
2023-05-10T02:37:37.034Z,3.38
2023-05-10T02:39:45.048Z,2.60
2023-05-10T02:41:50.851Z,2.53
2023-05-10T02:43:59.892Z,1.90
2023-05-10T02:46:05.416Z,2.20
2023-05-10T02:48:10.815Z,2.00
2023-05-10T02:50:16.345Z,2.75
2023-05-10T02:52:27.528Z,2.85
2023-05-10T02:54:41.738Z,2.65
2023-05-10T02:56:51.681Z,2.30
2023-05-10T02:58:56.762Z,2.55
2023-05-10T03:01:01.877Z,2.10
2023-05-10T03:03:07.942Z,2.72
2023-05-10T03:05:12.945Z,2.75
2023-05-10T03:07:20.520Z,2.50
2023-05-10T03:09:27.746Z,2.25
2023-05-10T03:13:58.197Z,2.08
2023-05-10T03:16:11.863Z,2.28
2023-05-10T03:18:25.193Z,2.13
2023-05-10T03:20:38.884Z,1.85
2023-05-10T03:22:50.971Z,1.98
2023-05-10T03:24:59.495Z,1.70
2023-05-10T03:27:11.831Z,1.83
2023-05-10T03:29:17.906Z,1.40
2023-05-10T03:31:23.778Z,1.20
2023-05-10T03:33:29.060Z,1.40
2023-05-10T03:37:38.968Z,1.30
2023-05-10T03:39:46.273Z,1.00
2023-05-10T03:41:51.324Z,0.77
2023-05-10T03:43:58.843Z,0.90
2023-05-10T03:46:05.794Z,0.90
2023-05-10T03:48:10.777Z,0.65
2023-05-10T03:52:21.015Z,0.70
2023-05-10T03:54:27.389Z,0.63
2023-05-10T03:56:32.245Z,0.90
2023-05-10T03:58:37.282Z,0.82
2023-05-10T04:02:52.640Z,0.57
2023-05-10T04:04:58.655Z,0.60
2023-05-10T04:07:03.570Z,0.60
2023-05-10T04:09:09.573Z,0.95
2023-05-10T04:11:16.088Z,0.85
2023-05-10T04:13:21.116Z,0.68
2023-05-10T04:17:33.551Z,0.80
2023-05-10T04:19:40.703Z,0.70
2023-05-10T04:21:45.531Z,0.60
2023-05-10T04:23:50.496Z,0.90
2023-05-10T04:25:55.335Z,0.60
2023-05-10T04:28:00.406Z,0.80
2023-05-10T04:30:05.517Z,0.77
2023-05-10T04:34:18.795Z,0.60
2023-05-10T04:36:24.311Z,0.70
2023-05-10T04:38:29.289Z,0.60
2023-05-10T04:42:38.958Z,0.50
2023-05-10T04:44:43.857Z,0.50
2023-05-10T04:46:48.815Z,0.55
2023-05-10T04:48:53.796Z,0.70
2023-05-10T04:51:01.345Z,0.70
2023-05-10T04:53:06.416Z,0.77
2023-05-10T04:55:11.979Z,0.45
2023-05-10T04:57:16.880Z,0.70
2023-05-10T04:59:21.804Z,0.50
2023-05-10T05:01:27.046Z,0.80
2023-05-10T05:05:36.700Z,0.50
2023-05-10T05:07:44.269Z,0.57
2023-05-10T05:09:49.157Z,0.60
2023-05-10T05:11:54.007Z,0.50
2023-05-10T05:14:00.296Z,0.68
2023-05-10T05:16:06.344Z,0.80
2023-05-10T05:18:11.455Z,0.60
2023-05-10T05:20:16.985Z,0.70
2023-05-10T05:22:28.529Z,0.80
2023-05-10T05:24:39.539Z,0.70
2023-05-10T05:26:44.455Z,0.60
2023-05-10T05:28:49.909Z,0.80
2023-05-10T05:30:54.877Z,1.00
2023-05-10T05:32:59.921Z,0.77
2023-05-10T05:35:05.008Z,0.70
2023-05-10T05:37:10.050Z,0.80
2023-05-10T05:41:25.797Z,0.90
2023-05-10T05:43:30.741Z,0.80
2023-05-10T05:45:35.651Z,0.90
2023-05-10T05:47:40.683Z,1.10
2023-05-10T05:49:46.983Z,1.10
2023-05-10T05:51:52.381Z,1.20
2023-05-10T05:53:57.552Z,1.25
2023-05-10T05:56:02.840Z,1.30
2023-05-10T05:58:10.440Z,1.08
2023-05-10T06:00:16.637Z,1.00
2023-05-10T06:02:23.643Z,0.80
2023-05-10T06:04:29.062Z,1.30
2023-05-10T06:06:34.204Z,0.93
2023-05-10T06:08:39.126Z,0.90
2023-05-10T06:10:44.291Z,0.88
2023-05-10T06:12:50.912Z,0.77
2023-05-10T06:14:58.458Z,1.08
2023-05-10T06:17:05.340Z,1.00
2023-05-10T06:19:10.456Z,1.00
2023-05-10T06:21:16.048Z,1.23
2023-05-10T06:23:20.998Z,0.82
2023-05-10T06:25:25.898Z,1.25
2023-05-10T06:27:30.928Z,1.00
2023-05-10T06:29:38.917Z,1.00
2023-05-10T06:31:46.890Z,1.00
2023-05-10T06:33:52.360Z,1.20
2023-05-10T06:35:58.406Z,0.90
2023-05-10T06:40:10.341Z,1.05
2023-05-10T06:42:15.412Z,1.00
2023-05-10T06:44:24.547Z,1.40
2023-05-10T06:46:29.521Z,1.10
2023-05-10T06:48:37.005Z,1.02
2023-05-10T06:50:43.119Z,0.98
2023-05-10T06:52:48.043Z,0.98
2023-05-10T06:54:52.969Z,1.05
2023-05-10T06:56:58.065Z,1.20
2023-05-10T07:01:08.125Z,1.20
2023-05-10T07:03:13.581Z,1.10
2023-05-10T07:05:21.598Z,1.17
2023-05-10T07:07:26.862Z,1.10
2023-05-10T07:09:31.764Z,0.98
2023-05-10T07:11:36.630Z,1.17
2023-05-10T07:13:45.268Z,1.00
2023-05-10T07:15:50.290Z,0.90
2023-05-10T07:17:55.551Z,0.98
2023-05-10T07:20:01.336Z,1.00
2023-05-10T07:22:08.939Z,1.20
2023-05-10T07:24:14.158Z,0.90
2023-05-10T07:28:23.975Z,0.98
2023-05-10T07:32:33.762Z,1.20
2023-05-10T07:34:38.928Z,1.00
2023-05-10T07:36:43.791Z,1.00
2023-05-10T07:38:51.334Z,0.90
2023-05-10T07:40:56.323Z,1.10
2023-05-10T07:43:02.805Z,1.00
2023-05-10T07:45:08.935Z,1.00
2023-05-10T07:47:13.881Z,1.20
2023-05-10T07:49:18.870Z,1.10
2023-05-10T07:51:23.827Z,0.95
2023-05-10T07:53:30.383Z,1.10
2023-05-10T07:55:37.833Z,1.25
2023-05-10T07:57:43.286Z,0.90
2023-05-10T07:59:48.712Z,1.17
2023-05-10T08:01:53.733Z,1.05
2023-05-10T08:06:04.627Z,1.10
2023-05-10T08:08:09.520Z,2.03
2023-05-10T08:10:15.064Z,1.10
2023-05-10T08:12:22.847Z,1.02
2023-05-10T08:14:27.862Z,1.40
2023-05-10T08:16:33.616Z,1.55
2023-05-10T08:18:38.773Z,1.23
2023-05-10T08:22:51.678Z,1.20
2023-05-10T08:24:56.887Z,1.35
2023-05-10T08:27:01.959Z,1.27
2023-05-10T08:29:09.926Z,1.30
2023-05-10T08:31:14.850Z,1.30
2023-05-10T08:33:22.134Z,1.48
2023-05-10T08:35:27.175Z,1.35
2023-05-10T08:39:39.862Z,1.30
2023-05-10T08:41:48.355Z,1.58
2023-05-10T08:43:54.457Z,1.08
2023-05-10T08:46:05.027Z,1.00
2023-05-10T08:48:12.004Z,1.27
2023-05-10T08:50:19.021Z,1.35
2023-05-10T08:52:25.533Z,1.48
2023-05-10T08:54:31.168Z,1.48
2023-05-10T08:56:39.441Z,1.70
2023-05-10T08:58:44.369Z,1.40
2023-05-10T09:00:49.942Z,1.30
2023-05-10T09:02:58.224Z,1.27
2023-05-10T09:05:04.127Z,1.60
2023-05-10T09:07:10.196Z,2.00
2023-05-10T09:09:15.994Z,2.35
2023-05-10T09:11:21.529Z,2.38
2023-05-10T09:13:28.404Z,2.00
2023-05-10T09:15:33.956Z,2.55
2023-05-10T09:17:39.998Z,2.42
2023-05-10T09:19:48.946Z,2.20
2023-05-10T09:21:53.900Z,2.20
2023-05-10T09:23:58.828Z,1.50
2023-05-10T09:26:07.282Z,1.85
2023-05-10T09:28:13.090Z,1.70
2023-05-10T09:30:20.385Z,1.85
2023-05-10T09:32:25.395Z,1.65
2023-05-10T09:34:35.937Z,1.65
2023-05-10T09:36:57.735Z,1.67
2023-05-10T09:39:03.062Z,1.90
2023-05-10T09:41:08.024Z,1.30
2023-05-10T09:43:13.218Z,1.58
2023-05-10T09:47:23.316Z,1.30
2023-05-10T09:49:28.294Z,1.50
2023-05-10T09:51:36.105Z,1.50
2023-05-10T09:53:44.285Z,1.10
2023-05-10T09:55:52.116Z,1.45
2023-05-10T09:58:04.026Z,1.45
2023-05-10T10:00:11.205Z,1.10
2023-05-10T10:02:18.847Z,1.30
2023-05-10T10:04:24.920Z,1.30
2023-05-10T10:06:30.735Z,1.10
2023-05-10T10:08:35.943Z,1.30
2023-05-10T10:12:51.932Z,1.10
2023-05-10T10:14:57.949Z,0.80
2023-05-10T10:17:08.674Z,0.90
2023-05-10T10:19:14.454Z,1.00
2023-05-10T10:21:21.641Z,0.80
2023-05-10T10:23:26.642Z,1.20
2023-05-10T10:25:32.070Z,1.30
2023-05-10T10:27:49.145Z,1.20
2023-05-10T10:30:03.333Z,0.93
2023-05-10T10:32:16.043Z,1.23
2023-05-10T10:34:30.825Z,0.98
2023-05-10T10:36:38.372Z,1.30
2023-05-10T10:39:04.358Z,1.10
2023-05-10T10:41:31.362Z,1.20
2023-05-10T10:43:38.917Z,1.05
2023-05-10T10:45:43.873Z,1.25
2023-05-10T10:49:57.679Z,1.10
2023-05-10T10:52:34.093Z,1.10
2023-05-10T10:56:44.584Z,0.90
2023-05-10T10:58:57.276Z,1.40
2023-05-10T11:01:20.275Z,1.10
2023-05-10T11:03:25.963Z,1.15
2023-05-10T11:05:49.109Z,1.40
2023-05-10T11:07:58.034Z,1.38
2023-05-10T11:10:08.516Z,1.10
2023-05-10T11:12:13.624Z,1.20
2023-05-10T11:16:29.572Z,1.63
2023-05-10T11:18:34.686Z,1.30
2023-05-10T11:20:43.090Z,1.63
2023-05-10T11:22:58.163Z,1.23
2023-05-10T11:25:03.616Z,1.55
2023-05-10T11:27:09.590Z,1.50
2023-05-10T11:29:16.343Z,0.98
2023-05-10T11:31:24.449Z,1.30
2023-05-10T11:33:29.519Z,1.35
2023-05-10T11:35:34.422Z,1.60
2023-05-10T11:37:42.428Z,2.10
2023-05-10T11:39:50.431Z,1.20
2023-05-10T11:41:55.478Z,2.13
2023-05-10T11:44:01.588Z,1.15
2023-05-10T11:46:06.983Z,1.25
2023-05-10T11:48:14.506Z,1.40
2023-05-10T11:50:20.159Z,1.15
2023-05-10T11:52:25.112Z,1.45
2023-05-10T11:54:30.029Z,1.33
2023-05-10T11:56:36.826Z,1.35
2023-05-10T11:58:43.921Z,1.40
2023-05-10T12:00:49.313Z,1.17
2023-05-10T12:02:54.542Z,1.20
2023-05-10T12:07:07.203Z,1.20
2023-05-10T12:11:20.766Z,0.90
2023-05-10T12:13:25.625Z,1.40
2023-05-10T12:15:32.374Z,2.05
2023-05-10T12:17:37.306Z,1.67
2023-05-10T12:19:45.063Z,1.10
2023-05-10T12:21:53.035Z,1.17
2023-05-10T12:24:02.630Z,1.23
2023-05-10T12:26:07.966Z,1.00
2023-05-10T12:28:13.469Z,1.10
2023-05-10T12:30:23.341Z,0.90
2023-05-10T12:32:41.978Z,0.90
2023-05-10T12:34:46.985Z,0.85
2023-05-10T12:39:07.015Z,0.93
2023-05-10T12:41:13.729Z,1.00
2023-05-10T12:43:18.672Z,0.77
2023-05-10T12:45:23.618Z,1.00
2023-05-10T12:47:28.588Z,0.77
2023-05-10T12:49:33.653Z,0.82
2023-05-10T12:51:38.537Z,0.90
2023-05-10T12:53:49.660Z,0.90
2023-05-10T12:55:54.963Z,1.10
2023-05-10T12:57:59.909Z,0.80
2023-05-10T13:00:06.531Z,1.15
2023-05-10T13:02:11.475Z,1.92
2023-05-10T13:04:16.344Z,1.50
2023-05-10T13:06:21.579Z,1.20
2023-05-10T13:08:26.463Z,1.60
2023-05-10T13:10:37.517Z,1.63
2023-05-10T13:12:44.071Z,1.88
2023-05-10T13:14:48.981Z,1.35
2023-05-10T13:16:54.347Z,1.35
2023-05-10T13:18:59.930Z,1.65
2023-05-10T13:21:06.917Z,1.50
2023-05-10T13:23:11.790Z,1.40
2023-05-10T13:25:17.358Z,1.35
2023-05-10T13:27:24.876Z,1.30
2023-05-10T13:29:29.872Z,1.27
2023-05-10T13:33:41.586Z,1.30
2023-05-10T13:35:46.525Z,2.53
2023-05-10T13:37:51.390Z,1.83
2023-05-10T13:39:56.380Z,1.02
2023-05-10T13:42:01.268Z,1.30
2023-05-10T13:44:08.848Z,0.80
2023-05-10T13:46:13.851Z,1.00
2023-05-10T13:50:26.460Z,1.05
2023-05-10T13:52:31.429Z,0.90
2023-05-10T13:54:36.922Z,1.00
2023-05-10T13:56:41.970Z,1.45
2023-05-10T14:00:54.177Z,1.20
2023-05-10T14:02:59.268Z,0.90
2023-05-10T14:05:04.308Z,1.02
2023-05-10T14:07:09.283Z,0.70
2023-05-10T14:11:19.128Z,1.00
2023-05-10T14:13:24.255Z,0.88
2023-05-10T14:15:29.177Z,0.90
2023-05-10T14:17:45.757Z,1.05
2023-05-10T14:19:50.854Z,1.08
2023-05-10T14:21:56.017Z,1.08
2023-05-10T14:26:05.530Z,1.02
2023-05-10T14:28:10.547Z,1.25
2023-05-10T14:30:16.581Z,1.13
2023-05-10T14:32:21.536Z,1.00
2023-05-10T14:34:29.089Z,1.30
2023-05-10T14:36:34.276Z,1.50
2023-05-10T14:38:39.259Z,1.13
2023-05-10T14:40:44.365Z,1.10
2023-05-10T14:42:49.510Z,1.05
2023-05-10T14:44:54.345Z,1.20
2023-05-10T14:46:59.281Z,1.10
2023-05-10T14:49:04.209Z,1.10
2023-05-10T14:53:17.217Z,1.50
2023-05-10T14:57:26.843Z,1.42
2023-05-10T14:59:31.770Z,1.20
2023-05-10T15:01:38.962Z,1.17
2023-05-10T15:03:44.417Z,1.10
2023-05-10T15:05:50.334Z,1.85
2023-05-10T15:07:57.919Z,1.50
2023-05-10T15:10:03.437Z,1.02
2023-05-10T15:12:11.326Z,1.13
2023-05-10T15:14:16.309Z,1.00
2023-05-10T15:16:21.344Z,0.95
2023-05-10T15:18:26.933Z,0.80
2023-05-10T15:20:31.961Z,0.50
2023-05-10T15:22:36.951Z,0.90
2023-05-10T15:24:44.489Z,0.73
2023-05-10T15:26:49.433Z,0.98
2023-05-10T15:28:54.418Z,0.90
2023-05-10T15:30:59.695Z,0.80
2023-05-10T15:33:04.758Z,0.80
2023-05-10T15:35:11.497Z,0.88
2023-05-10T15:37:16.438Z,0.93
2023-05-10T15:41:29.141Z,0.80
2023-05-10T15:43:34.195Z,1.20
2023-05-10T15:45:39.069Z,0.90
2023-05-10T15:47:45.305Z,1.00
2023-05-10T15:49:50.306Z,1.30
2023-05-10T15:51:55.293Z,1.05
2023-05-10T15:54:07.028Z,1.27
2023-05-10T15:56:12.940Z,1.17
2023-05-10T15:58:20.452Z,1.27
2023-05-10T16:00:25.481Z,1.63
2023-05-10T16:02:30.708Z,1.80
2023-05-10T16:04:35.751Z,1.60
2023-05-10T16:06:40.849Z,1.70
2023-05-10T16:10:50.625Z,1.33
2023-05-10T16:15:03.594Z,1.75
2023-05-10T16:17:08.972Z,1.55
2023-05-10T16:19:13.959Z,1.70
2023-05-10T16:21:18.975Z,1.95
2023-05-10T16:23:23.989Z,1.83
2023-05-10T16:25:28.891Z,1.65
2023-05-10T16:27:33.826Z,1.90
2023-05-10T16:31:46.533Z,2.08
2023-05-10T16:33:51.489Z,1.60
2023-05-10T16:35:56.613Z,2.22
2023-05-10T16:40:07.154Z,1.90
2023-05-10T16:42:12.320Z,1.67
2023-05-10T16:46:25.192Z,1.60
2023-05-10T16:48:32.708Z,1.90
2023-05-10T16:50:37.643Z,1.63
2023-05-10T16:52:45.529Z,1.73
2023-05-10T16:54:50.465Z,1.70
2023-05-10T16:56:55.403Z,1.60
2023-05-10T16:59:00.337Z,1.63
2023-05-10T17:01:05.323Z,1.52
2023-05-10T17:03:10.378Z,1.58
2023-05-10T17:05:18.150Z,1.30
2023-05-10T17:07:26.009Z,1.48
2023-05-10T17:09:31.219Z,1.52
2023-05-10T17:11:38.816Z,1.50
2023-05-10T17:13:43.736Z,1.50
2023-05-10T17:15:49.292Z,1.30
2023-05-10T17:17:54.345Z,1.33
2023-05-10T17:19:59.373Z,1.52
2023-05-10T17:22:06.906Z,1.10
2023-05-10T17:24:12.121Z,1.30
2023-05-10T17:26:17.601Z,1.55
2023-05-10T17:28:25.399Z,1.42
2023-05-10T17:30:32.882Z,1.30
2023-05-10T17:32:37.800Z,1.38
2023-05-10T17:34:45.407Z,1.67
2023-05-10T17:36:50.298Z,1.60
2023-05-10T17:38:57.818Z,1.83
2023-05-10T17:41:02.749Z,1.23
2023-05-10T17:45:13.607Z,1.73
2023-05-10T17:47:18.508Z,1.50
2023-05-10T17:49:23.562Z,1.75
2023-05-10T17:51:29.111Z,1.88
2023-05-10T17:53:35.258Z,1.35
2023-05-10T17:55:45.225Z,1.67
2023-05-10T17:57:51.943Z,1.58
2023-05-10T17:59:57.048Z,1.65
2023-05-10T18:02:03.707Z,1.70
2023-05-10T18:04:08.954Z,1.52
2023-05-10T18:08:23.062Z,1.70
2023-05-10T18:10:32.846Z,1.65
2023-05-10T18:12:40.323Z,1.75
2023-05-10T18:14:45.231Z,1.92
2023-05-10T18:16:50.502Z,2.03
2023-05-10T18:18:55.407Z,1.88
2023-05-10T18:21:01.038Z,1.80
2023-05-10T18:23:06.530Z,1.80
2023-05-10T18:25:12.484Z,1.75
2023-05-10T18:27:17.434Z,1.75
2023-05-10T18:29:25.012Z,2.42
2023-05-10T18:31:30.346Z,1.80
2023-05-10T18:33:37.731Z,1.60
2023-05-10T18:35:45.530Z,1.95
2023-05-10T18:37:50.434Z,2.28
2023-05-10T18:39:55.395Z,2.08
2023-05-10T18:42:00.336Z,1.83
2023-05-10T18:44:05.363Z,1.60
2023-05-10T18:46:13.031Z,1.67
2023-05-10T18:48:20.410Z,1.70
2023-05-10T18:50:25.445Z,1.95
2023-05-10T18:54:35.186Z,1.50
2023-05-10T18:56:44.090Z,2.28
2023-05-10T18:58:49.120Z,1.70
2023-05-10T19:00:55.278Z,2.00
2023-05-10T19:03:02.797Z,1.77
2023-05-10T19:05:08.914Z,1.98
2023-05-10T19:07:13.820Z,1.95
2023-05-10T19:09:20.353Z,2.30
2023-05-10T19:11:25.328Z,1.80
2023-05-10T19:13:30.540Z,2.00
2023-05-10T19:17:40.425Z,1.52
2023-05-10T19:19:48.002Z,2.10
2023-05-10T19:21:53.766Z,1.38
2023-05-10T19:23:59.630Z,1.85
2023-05-10T19:26:04.750Z,1.75
2023-05-10T19:30:15.736Z,2.22
2023-05-10T19:32:20.770Z,3.08
2023-05-10T19:36:34.417Z,2.10
2023-05-10T19:38:40.414Z,1.60
2023-05-10T19:40:47.567Z,1.30
2023-05-10T19:42:52.921Z,1.50
2023-05-10T19:44:59.186Z,1.52
2023-05-10T19:47:04.907Z,1.70
2023-05-10T19:49:09.857Z,1.83
2023-05-10T19:51:15.226Z,1.50
2023-05-10T19:53:24.603Z,1.13
2023-05-10T19:55:30.961Z,1.40
2023-05-10T19:57:35.805Z,1.73
2023-05-10T19:59:40.874Z,1.63
2023-05-10T20:01:46.383Z,1.50
2023-05-10T20:03:51.336Z,1.70
2023-05-10T20:08:01.175Z,1.60
2023-05-10T20:10:09.702Z,1.90
2023-05-10T20:12:14.783Z,1.80
2023-05-10T20:14:20.418Z,1.98
2023-05-10T20:16:26.944Z,1.83
2023-05-10T20:18:31.959Z,1.90
2023-05-10T20:20:36.854Z,2.00
2023-05-10T20:22:41.800Z,2.63
2023-05-10T20:24:47.711Z,2.15
2023-05-10T20:26:55.177Z,1.90
2023-05-10T20:29:00.281Z,2.03
2023-05-10T20:33:10.304Z,1.88
2023-05-10T20:35:15.204Z,1.98
2023-05-10T20:37:20.260Z,2.33
2023-05-10T20:39:25.274Z,2.45
2023-05-10T20:41:30.216Z,2.45
2023-05-10T20:43:37.842Z,2.42
2023-05-10T20:45:43.116Z,2.72
2023-05-10T20:47:48.159Z,2.15
2023-05-10T20:49:53.184Z,2.65
2023-05-10T20:51:58.388Z,2.53
2023-05-10T20:54:06.989Z,1.83
2023-05-10T20:56:11.897Z,2.50
2023-05-10T20:58:16.841Z,2.40
2023-05-10T21:00:24.755Z,2.53
2023-05-10T21:02:29.867Z,2.45
2023-05-10T21:06:39.895Z,2.22
2023-05-10T21:08:44.748Z,2.33
2023-05-10T21:10:49.987Z,2.00
2023-05-10T21:12:55.096Z,2.10
2023-05-10T21:15:00.064Z,1.83
2023-05-10T21:17:07.550Z,1.98
2023-05-10T21:19:12.480Z,2.00
2023-05-10T21:21:17.519Z,2.22
2023-05-10T21:25:28.323Z,1.95
2023-05-10T21:27:33.867Z,2.47
2023-05-10T21:29:38.871Z,2.20
2023-05-10T21:31:43.765Z,2.35
2023-05-10T21:33:51.464Z,2.05
2023-05-10T21:35:56.627Z,2.00
2023-05-10T21:38:01.589Z,1.75
2023-05-10T21:40:07.534Z,2.15
2023-05-10T21:42:12.505Z,2.28
2023-05-10T21:44:17.806Z,2.78
2023-05-10T21:46:22.983Z,2.95
2023-05-10T21:48:28.066Z,2.25
2023-05-10T21:50:35.567Z,2.67
2023-05-10T21:52:40.750Z,2.08
2023-05-10T21:56:50.306Z,2.17
2023-05-10T21:58:55.184Z,2.50
2023-05-10T22:01:00.864Z,1.83
2023-05-10T22:03:05.792Z,2.25
2023-05-10T22:05:11.595Z,2.35
2023-05-10T22:07:19.256Z,2.20
2023-05-10T22:09:25.505Z,2.08
2023-05-10T22:11:30.413Z,2.05
2023-05-10T22:13:35.398Z,2.00
2023-05-10T22:15:40.401Z,2.17
2023-05-10T22:17:45.357Z,2.65
2023-05-10T22:19:50.439Z,1.73
2023-05-10T22:21:55.350Z,1.90
2023-05-10T22:24:02.814Z,2.08
2023-05-10T22:26:08.023Z,1.90
2023-05-10T22:30:19.948Z,2.10
2023-05-10T22:32:25.081Z,2.40
2023-05-10T22:34:29.930Z,2.10
2023-05-10T22:36:34.875Z,2.13
2023-05-10T22:38:39.833Z,2.03
2023-05-10T22:40:47.317Z,2.20
2023-05-10T22:42:52.195Z,2.78
2023-05-10T22:44:59.213Z,2.40
2023-05-10T22:47:04.114Z,2.10
2023-05-10T22:49:10.051Z,2.20
2023-05-10T22:51:15.087Z,2.30
2023-05-10T22:53:19.944Z,2.90
2023-05-10T22:55:25.001Z,2.35
2023-05-10T22:57:32.467Z,2.00
2023-05-10T22:59:37.445Z,2.15
2023-05-10T23:01:42.648Z,2.45
2023-05-10T23:03:47.657Z,2.83
2023-05-10T23:05:52.551Z,2.28
2023-05-10T23:07:57.458Z,2.80
2023-05-10T23:10:02.335Z,2.42
2023-05-10T23:12:07.419Z,2.13
2023-05-10T23:14:14.869Z,2.33
2023-05-10T23:16:19.848Z,2.30
2023-05-10T23:18:24.792Z,2.25
2023-05-10T23:20:29.967Z,2.00
2023-05-10T23:22:35.188Z,2.20
2023-05-10T23:24:40.761Z,2.03
2023-05-10T23:26:46.755Z,2.20
2023-05-10T23:28:51.670Z,1.90
2023-05-10T23:31:02.408Z,1.85
2023-05-10T23:33:08.546Z,1.90
2023-05-10T23:35:13.670Z,2.60
2023-05-10T23:37:18.606Z,2.40
2023-05-10T23:39:23.489Z,2.30
2023-05-10T23:41:28.397Z,2.60
2023-05-10T23:43:33.287Z,2.28
2023-05-10T23:45:38.410Z,2.13
2023-05-10T23:49:52.879Z,2.00
2023-05-10T23:51:57.765Z,2.40
2023-05-10T23:54:03.142Z,2.40
2023-05-10T23:58:13.555Z,2.33
